createdAt,value
2022-12-25T00:01:14.185Z,17.46
2022-12-25T00:03:44.441Z,17.37
2022-12-25T00:06:12.408Z,17.29
2022-12-25T00:08:41.244Z,17.27
2022-12-25T00:11:12.543Z,17.26
2022-12-25T00:13:40.641Z,17.17
2022-12-25T00:16:11.531Z,16.67
2022-12-25T00:18:39.442Z,16.69
2022-12-25T00:21:08.463Z,16.89
2022-12-25T00:23:36.601Z,16.74
2022-12-25T00:26:06.192Z,16.76
2022-12-25T00:28:33.401Z,16.80
2022-12-25T00:31:05.343Z,16.55
2022-12-25T00:33:35.698Z,16.50
2022-12-25T00:36:03.763Z,16.30
2022-12-25T00:38:31.001Z,16.34
2022-12-25T00:40:58.362Z,16.47
2022-12-25T00:43:25.502Z,16.40
2022-12-25T00:45:57.713Z,16.60
2022-12-25T00:48:25.525Z,16.57
2022-12-25T00:50:59.525Z,16.63
2022-12-25T00:53:28.165Z,16.59
2022-12-25T00:55:57.711Z,16.69
2022-12-25T00:58:27.022Z,16.72
2022-12-25T01:00:54.610Z,16.76
2022-12-25T01:03:21.870Z,16.86
2022-12-25T01:05:58.017Z,16.82
2022-12-25T01:08:25.758Z,16.88
2022-12-25T01:10:56.406Z,16.88
2022-12-25T01:13:23.996Z,16.92
2022-12-25T01:15:51.871Z,16.91
2022-12-25T01:18:18.993Z,16.92
2022-12-25T01:20:46.636Z,16.93
2022-12-25T01:23:15.826Z,16.91
2022-12-25T01:25:43.323Z,16.90
2022-12-25T01:28:10.623Z,16.94
2022-12-25T01:30:37.852Z,16.96
2022-12-25T01:33:05.099Z,16.94
2022-12-25T01:35:32.173Z,16.94
2022-12-25T01:37:59.397Z,16.96
2022-12-25T01:40:28.056Z,16.93
2022-12-25T01:42:55.234Z,16.93
2022-12-25T01:45:42.529Z,16.92
2022-12-25T01:48:17.732Z,16.85
2022-12-25T01:50:48.673Z,16.83
2022-12-25T01:53:16.575Z,16.77
2022-12-25T01:55:50.453Z,16.77
2022-12-25T01:58:18.974Z,16.78
2022-12-25T02:00:46.858Z,16.73
2022-12-25T02:03:14.706Z,16.70
2022-12-25T02:05:42.220Z,16.69
2022-12-25T02:08:12.738Z,16.73
2022-12-25T02:10:39.863Z,16.73
2022-12-25T02:13:09.352Z,16.70
2022-12-25T02:15:49.219Z,16.70
2022-12-25T02:18:29.773Z,16.71
2022-12-25T02:21:30.397Z,16.70
2022-12-25T02:24:32.197Z,16.69
2022-12-25T02:27:09.853Z,16.71
2022-12-25T02:29:52.433Z,16.65
2022-12-25T02:32:28.031Z,16.62
2022-12-25T02:35:03.413Z,17.52
2022-12-25T02:37:40.654Z,17.81
2022-12-25T02:40:16.267Z,17.95
2022-12-25T02:42:51.794Z,18.14
2022-12-25T02:45:29.015Z,18.49
2022-12-25T02:47:57.917Z,18.78
2022-12-25T02:50:26.714Z,18.98
2022-12-25T02:52:59.734Z,19.06
2022-12-25T02:55:33.693Z,19.15
2022-12-25T02:58:06.360Z,19.24
2022-12-25T03:00:40.690Z,19.27
2022-12-25T03:03:12.129Z,19.38
2022-12-25T03:05:42.431Z,19.37
2022-12-25T03:08:15.854Z,19.48
2022-12-25T03:10:50.250Z,19.48
2022-12-25T03:13:23.059Z,19.49
2022-12-25T03:15:53.176Z,19.53
2022-12-25T03:18:26.910Z,19.32
2022-12-25T03:20:55.075Z,19.36
2022-12-25T03:23:28.409Z,19.19
2022-12-25T03:25:55.737Z,19.10
2022-12-25T03:28:22.877Z,19.26
2022-12-25T03:31:03.052Z,19.28
2022-12-25T03:33:45.868Z,19.14
2022-12-25T03:36:24.123Z,19.24
2022-12-25T03:39:02.190Z,19.16
2022-12-25T03:41:41.491Z,19.11
2022-12-25T03:44:19.898Z,18.98
2022-12-25T03:46:57.131Z,19.10
2022-12-25T03:49:31.767Z,19.18
2022-12-25T03:52:04.754Z,19.20
2022-12-25T03:54:37.848Z,19.12
2022-12-25T03:57:05.348Z,19.17
2022-12-25T03:59:32.690Z,18.98
2022-12-25T04:02:01.337Z,18.92
2022-12-25T04:04:28.667Z,19.08
2022-12-25T04:06:55.732Z,18.87
2022-12-25T04:09:22.951Z,18.93
2022-12-25T04:11:50.040Z,19.00
2022-12-25T04:14:17.188Z,18.86
2022-12-25T04:16:44.469Z,18.95
2022-12-25T04:19:13.230Z,18.93
2022-12-25T04:21:40.893Z,18.95
2022-12-25T04:24:09.545Z,18.93
2022-12-25T04:26:36.651Z,19.01
2022-12-25T04:29:03.817Z,18.99
2022-12-25T04:31:30.909Z,18.99
2022-12-25T04:33:58.054Z,18.65
2022-12-25T04:36:26.612Z,18.78
2022-12-25T04:38:53.692Z,18.81
2022-12-25T04:41:20.931Z,18.62
2022-12-25T04:43:48.059Z,18.61
2022-12-25T04:46:15.117Z,18.64
2022-12-25T04:48:42.378Z,18.69
2022-12-25T04:51:15.566Z,18.73
2022-12-25T04:53:45.399Z,18.56
2022-12-25T04:56:13.535Z,18.52
2022-12-25T04:58:41.320Z,18.57
2022-12-25T05:01:09.092Z,18.49
2022-12-25T05:03:36.421Z,18.70
2022-12-25T05:06:04.579Z,18.45
2022-12-25T05:08:33.811Z,18.50
2022-12-25T05:11:06.304Z,18.61
2022-12-25T05:13:33.412Z,18.65
2022-12-25T05:16:00.665Z,18.62
2022-12-25T05:18:27.851Z,18.75
2022-12-25T05:20:55.984Z,18.54
2022-12-25T05:23:23.286Z,18.34
2022-12-25T05:25:50.472Z,18.44
2022-12-25T05:28:19.060Z,18.48
2022-12-25T05:30:46.152Z,18.35
2022-12-25T05:33:13.792Z,18.21
2022-12-25T05:35:40.958Z,18.32
2022-12-25T05:38:08.967Z,18.40
2022-12-25T05:40:39.295Z,18.29
2022-12-25T05:43:06.491Z,18.22
2022-12-25T05:45:35.492Z,18.33
2022-12-25T05:48:02.712Z,18.29
2022-12-25T05:50:30.171Z,18.32
2022-12-25T05:53:00.201Z,18.20
2022-12-25T05:55:29.952Z,18.28
2022-12-25T05:57:57.752Z,18.19
2022-12-25T06:00:24.790Z,18.27
2022-12-25T06:02:53.652Z,18.27
2022-12-25T06:05:20.870Z,18.15
2022-12-25T06:07:48.031Z,18.19
2022-12-25T06:10:15.433Z,18.19
2022-12-25T06:12:42.631Z,18.11
2022-12-25T06:15:10.296Z,18.10
2022-12-25T06:17:37.471Z,18.21
2022-12-25T06:20:07.915Z,18.21
2022-12-25T06:22:35.175Z,18.22
2022-12-25T06:25:02.392Z,18.24
2022-12-25T06:27:29.579Z,18.28
2022-12-25T06:29:57.043Z,18.16
2022-12-25T06:32:24.191Z,18.21
2022-12-25T06:34:51.379Z,18.21
2022-12-25T06:37:19.904Z,18.14
2022-12-25T06:39:47.299Z,18.13
2022-12-25T06:42:14.478Z,18.24
2022-12-25T06:44:41.651Z,18.26
2022-12-25T06:47:08.887Z,18.12
2022-12-25T06:49:36.116Z,18.19
2022-12-25T06:52:03.526Z,18.11
2022-12-25T06:54:32.037Z,18.08
2022-12-25T06:56:59.206Z,18.08
2022-12-25T06:59:26.406Z,18.18
2022-12-25T07:01:56.038Z,18.17
2022-12-25T07:04:29.418Z,18.16
2022-12-25T07:06:56.518Z,18.28
2022-12-25T07:09:23.568Z,18.32
2022-12-25T07:11:52.157Z,18.21
2022-12-25T07:14:24.190Z,18.06
2022-12-25T07:16:52.020Z,18.17
2022-12-25T07:19:19.243Z,18.17
2022-12-25T07:21:46.718Z,18.25
2022-12-25T07:24:18.615Z,18.29
2022-12-25T07:26:45.774Z,18.24
2022-12-25T07:29:14.480Z,18.16
2022-12-25T07:31:41.674Z,18.08
2022-12-25T07:34:09.421Z,18.04
2022-12-25T07:36:36.579Z,18.14
2022-12-25T07:39:04.342Z,18.28
2022-12-25T07:41:31.527Z,18.33
2022-12-25T07:43:58.699Z,18.34
2022-12-25T07:46:27.317Z,18.31
2022-12-25T07:48:54.818Z,18.26
2022-12-25T07:51:21.986Z,18.40
2022-12-25T07:53:49.372Z,18.17
2022-12-25T07:56:19.378Z,18.19
2022-12-25T07:58:47.243Z,18.25
2022-12-25T08:01:16.974Z,18.24
2022-12-25T08:03:49.697Z,18.23
2022-12-25T08:06:17.362Z,18.38
2022-12-25T08:08:44.517Z,18.45
2022-12-25T08:11:11.757Z,18.59
2022-12-25T08:13:38.990Z,18.72
2022-12-25T08:16:08.994Z,18.47
2022-12-25T08:18:37.909Z,18.48
2022-12-25T08:21:08.975Z,18.61
2022-12-25T08:23:38.519Z,18.56
2022-12-25T08:26:07.981Z,18.37
2022-12-25T08:28:35.839Z,18.54
2022-12-25T08:31:08.353Z,18.63
2022-12-25T08:33:35.963Z,18.60
2022-12-25T08:36:04.720Z,18.62
2022-12-25T08:38:33.480Z,18.63
2022-12-25T08:41:00.666Z,18.70
2022-12-25T08:43:27.846Z,18.73
2022-12-25T08:45:55.180Z,18.79
2022-12-25T08:48:22.431Z,18.77
2022-12-25T08:50:51.857Z,18.61
2022-12-25T08:53:19.438Z,18.65
2022-12-25T08:55:48.204Z,18.54
2022-12-25T08:58:15.799Z,18.51
2022-12-25T09:00:43.118Z,18.64
2022-12-25T09:03:10.362Z,18.66
2022-12-25T09:05:38.351Z,18.60
2022-12-25T09:08:05.675Z,18.73
2022-12-25T09:10:36.411Z,18.68
2022-12-25T09:13:05.681Z,18.53
2022-12-25T09:15:33.270Z,18.61
2022-12-25T09:18:00.446Z,18.83
2022-12-25T09:20:27.623Z,18.72
2022-12-25T09:22:54.967Z,18.67
2022-12-25T09:25:22.159Z,18.91
2022-12-25T09:27:49.644Z,18.80
2022-12-25T09:30:18.599Z,18.73
2022-12-25T09:32:45.744Z,18.74
2022-12-25T09:35:13.459Z,18.74
2022-12-25T09:37:40.604Z,18.78
2022-12-25T09:40:10.436Z,18.70
2022-12-25T09:42:37.619Z,18.66
2022-12-25T09:45:10.900Z,18.75
2022-12-25T09:47:44.799Z,18.85
2022-12-25T09:50:17.241Z,18.80
2022-12-25T09:52:51.502Z,18.85
2022-12-25T09:55:23.419Z,18.85
2022-12-25T09:57:54.678Z,18.83
2022-12-25T10:00:24.256Z,18.89
2022-12-25T10:03:18.538Z,18.83
2022-12-25T10:06:06.563Z,18.90
2022-12-25T10:08:58.958Z,18.82
2022-12-25T10:11:46.958Z,18.86
2022-12-25T10:14:30.762Z,18.92
2022-12-25T10:17:14.907Z,18.82
2022-12-25T10:19:52.776Z,18.97
2022-12-25T10:22:27.518Z,19.02
2022-12-25T10:24:59.342Z,18.78
2022-12-25T10:27:33.612Z,18.85
2022-12-25T10:30:05.827Z,18.79
2022-12-25T10:32:33.904Z,18.79
2022-12-25T10:35:02.499Z,18.84
2022-12-25T10:37:30.584Z,18.88
2022-12-25T10:39:57.763Z,18.70
2022-12-25T10:42:39.147Z,18.73
2022-12-25T10:45:08.803Z,18.84
2022-12-25T10:47:41.875Z,18.94
2022-12-25T10:50:19.540Z,18.97
2022-12-25T10:52:55.992Z,19.02
2022-12-25T10:55:28.419Z,19.00
2022-12-25T10:57:56.981Z,19.11
2022-12-25T11:00:27.942Z,19.10
2022-12-25T11:02:55.919Z,19.11
2022-12-25T11:05:29.077Z,19.17
2022-12-25T11:07:58.138Z,19.17
2022-12-25T11:10:28.847Z,19.18
2022-12-25T11:12:57.578Z,19.25
2022-12-25T11:15:40.551Z,18.35
2022-12-25T11:18:21.109Z,18.49
2022-12-25T11:20:52.401Z,18.85
2022-12-25T11:23:22.886Z,18.98
2022-12-25T11:25:57.918Z,19.13
2022-12-25T11:28:26.405Z,19.06
2022-12-25T11:31:00.878Z,19.24
2022-12-25T11:33:35.397Z,19.16
2022-12-25T11:36:15.858Z,19.24
2022-12-25T11:38:43.019Z,19.23
2022-12-25T11:41:13.277Z,19.24
2022-12-25T11:43:49.645Z,19.16
2022-12-25T11:46:24.305Z,19.18
2022-12-25T11:48:57.567Z,19.18
2022-12-25T11:51:33.590Z,18.99
2022-12-25T11:54:08.036Z,19.19
2022-12-25T11:56:38.239Z,19.27
2022-12-25T11:59:18.282Z,19.30
2022-12-25T12:01:52.291Z,18.70
2022-12-25T12:04:30.018Z,18.70
2022-12-25T12:07:08.089Z,18.60
2022-12-25T12:09:48.556Z,18.65
2022-12-25T12:12:23.977Z,18.60
2022-12-25T12:15:00.629Z,18.46
2022-12-25T12:17:27.878Z,18.44
2022-12-25T12:19:55.098Z,18.26
2022-12-25T12:22:27.706Z,18.16
2022-12-25T12:25:00.383Z,18.13
2022-12-25T12:27:35.476Z,17.94
2022-12-25T12:30:03.476Z,17.86
2022-12-25T12:32:39.539Z,17.87
2022-12-25T12:35:16.108Z,17.85
2022-12-25T12:37:49.744Z,17.69
2022-12-25T12:40:33.361Z,17.75
2022-12-25T12:43:01.839Z,17.71
2022-12-25T12:45:33.767Z,17.69
2022-12-25T12:48:01.058Z,17.73
2022-12-25T12:50:32.793Z,17.68
2022-12-25T12:53:17.697Z,17.63
2022-12-25T12:55:45.080Z,17.55
2022-12-25T12:58:27.767Z,17.64
2022-12-25T13:01:08.969Z,17.31
2022-12-25T13:04:04.420Z,17.47
2022-12-25T13:06:40.946Z,17.59
2022-12-25T13:09:27.558Z,17.54
2022-12-25T13:11:55.117Z,17.59
2022-12-25T13:14:24.457Z,17.72
2022-12-25T13:16:54.522Z,17.79
2022-12-25T13:19:23.710Z,17.81
2022-12-25T13:21:55.779Z,17.83
2022-12-25T13:24:26.626Z,17.86
2022-12-25T13:26:54.903Z,17.85
2022-12-25T13:29:34.058Z,17.81
2022-12-25T13:32:04.361Z,17.72
2022-12-25T13:34:35.958Z,17.61
2022-12-25T13:37:09.185Z,17.34
2022-12-25T13:39:49.478Z,17.52
2022-12-25T13:42:21.521Z,17.54
2022-12-25T13:44:53.666Z,17.56
2022-12-25T13:47:26.925Z,17.57
2022-12-25T13:49:57.263Z,17.48
2022-12-25T13:52:32.277Z,17.58
2022-12-25T13:55:04.226Z,17.61
2022-12-25T13:57:37.226Z,17.49
2022-12-25T14:00:08.416Z,17.60
2022-12-25T14:02:38.375Z,17.60
2022-12-25T14:05:24.236Z,17.50
2022-12-25T14:07:52.166Z,17.51
2022-12-25T14:10:23.141Z,17.55
2022-12-25T14:12:51.645Z,17.49
2022-12-25T14:15:22.530Z,17.51
2022-12-25T14:17:51.921Z,17.47
2022-12-25T14:20:29.007Z,17.45
2022-12-25T14:22:59.868Z,17.43
2022-12-25T14:25:34.276Z,17.36
2022-12-25T14:28:08.441Z,17.38
2022-12-25T14:30:36.586Z,17.37
2022-12-25T14:33:03.959Z,17.39
2022-12-25T14:35:31.641Z,17.38
2022-12-25T14:38:00.709Z,17.37
2022-12-25T14:40:31.680Z,17.39
2022-12-25T14:43:01.084Z,17.35
2022-12-25T14:45:32.439Z,17.39
2022-12-25T14:48:02.360Z,17.34
2022-12-25T14:50:35.185Z,17.38
2022-12-25T14:53:03.279Z,17.35
2022-12-25T14:55:32.296Z,17.35
2022-12-25T14:58:04.946Z,17.32
2022-12-25T15:00:36.979Z,17.31
2022-12-25T15:03:15.857Z,17.39
2022-12-25T15:05:43.603Z,17.38
2022-12-25T15:08:25.351Z,17.37
2022-12-25T15:11:01.177Z,17.40
2022-12-25T15:13:30.687Z,17.39
2022-12-25T15:16:02.880Z,17.43
2022-12-25T15:18:37.741Z,17.40
2022-12-25T15:21:05.369Z,17.38
2022-12-25T15:23:32.735Z,17.35
2022-12-25T15:26:01.378Z,17.20
2022-12-25T15:28:28.513Z,17.23
2022-12-25T15:30:56.329Z,17.21
2022-12-25T15:33:23.668Z,17.21
2022-12-25T15:35:50.861Z,17.17
2022-12-25T15:38:18.233Z,17.18
2022-12-25T15:40:47.140Z,17.17
2022-12-25T15:43:39.269Z,17.21
2022-12-25T15:46:02.930Z,17.19
2022-12-25T15:48:30.223Z,17.12
2022-12-25T15:50:57.850Z,17.00
2022-12-25T15:53:25.260Z,17.03
2022-12-25T15:55:52.900Z,17.07
2022-12-25T15:58:21.466Z,17.03
2022-12-25T16:00:48.622Z,17.01
2022-12-25T16:03:15.891Z,16.97
2022-12-25T16:05:43.283Z,16.96
2022-12-25T16:08:10.399Z,16.96
2022-12-25T16:10:39.177Z,16.91
2022-12-25T16:13:07.723Z,16.87
2022-12-25T16:15:36.520Z,16.73
2022-12-25T16:18:04.092Z,16.69
2022-12-25T16:20:31.587Z,16.67
2022-12-25T16:22:58.758Z,16.61
2022-12-25T16:25:28.944Z,16.59
2022-12-25T16:27:56.029Z,16.57
2022-12-25T16:30:23.107Z,16.50
2022-12-25T16:32:51.735Z,16.45
2022-12-25T16:35:19.080Z,16.49
2022-12-25T16:37:46.487Z,16.50
2022-12-25T16:40:14.082Z,16.48
2022-12-25T16:42:41.218Z,16.42
2022-12-25T16:45:09.339Z,16.38
2022-12-25T16:47:42.199Z,16.35
2022-12-25T16:50:11.645Z,16.27
2022-12-25T16:52:38.901Z,16.20
2022-12-25T16:55:06.642Z,16.18
2022-12-25T16:57:34.076Z,16.17
2022-12-25T17:00:01.360Z,16.14
2022-12-25T17:02:28.524Z,16.16
2022-12-25T17:04:56.066Z,16.11
2022-12-25T17:07:24.763Z,16.16
2022-12-25T17:09:51.904Z,16.20
2022-12-25T17:12:19.046Z,16.20
2022-12-25T17:14:46.303Z,16.20
2022-12-25T17:17:13.518Z,16.16
2022-12-25T17:19:41.631Z,16.10
2022-12-25T17:22:08.826Z,16.18
2022-12-25T17:24:38.160Z,16.12
2022-12-25T17:27:05.439Z,16.12
2022-12-25T17:29:32.607Z,16.17
2022-12-25T17:31:59.846Z,16.18
2022-12-25T17:34:27.659Z,16.24
2022-12-25T17:36:54.799Z,16.24
2022-12-25T17:39:21.881Z,16.31
2022-12-25T17:41:51.510Z,16.35
2022-12-25T17:44:19.122Z,16.29
2022-12-25T17:46:46.273Z,16.26
2022-12-25T17:49:16.567Z,16.13
2022-12-25T17:51:43.819Z,16.26
2022-12-25T17:54:11.198Z,16.26
2022-12-25T17:56:38.420Z,16.25
2022-12-25T17:59:07.451Z,16.23
2022-12-25T18:01:36.970Z,15.95
2022-12-25T18:04:05.302Z,16.06
2022-12-25T18:06:35.813Z,16.09
2022-12-25T18:09:04.958Z,16.11
2022-12-25T18:11:32.146Z,15.99
2022-12-25T18:14:02.734Z,16.06
2022-12-25T18:16:34.593Z,16.03
2022-12-25T18:19:02.223Z,15.97
2022-12-25T18:21:30.087Z,15.96
2022-12-25T18:23:57.657Z,15.90
2022-12-25T18:26:25.116Z,15.96
2022-12-25T18:28:52.405Z,15.98
2022-12-25T18:31:27.306Z,15.96
2022-12-25T18:33:57.442Z,15.98
2022-12-25T18:36:27.596Z,15.95
2022-12-25T18:38:57.668Z,15.75
2022-12-25T18:41:26.182Z,15.89
2022-12-25T18:43:55.668Z,16.00
2022-12-25T18:46:24.947Z,16.06
2022-12-25T18:48:53.137Z,16.06
2022-12-25T18:51:21.968Z,16.06
2022-12-25T18:53:49.215Z,16.15
2022-12-25T18:56:18.160Z,16.19
2022-12-25T18:58:46.719Z,16.23
2022-12-25T19:01:16.142Z,16.12
2022-12-25T19:03:45.203Z,16.20
2022-12-25T19:06:17.404Z,16.22
2022-12-25T19:08:46.581Z,16.32
2022-12-25T19:11:13.935Z,16.38
2022-12-25T19:13:41.087Z,16.41
2022-12-25T19:16:08.321Z,16.34
2022-12-25T19:18:35.495Z,16.24
2022-12-25T19:21:04.245Z,16.01
2022-12-25T19:23:32.045Z,15.90
2022-12-25T19:26:00.983Z,15.87
2022-12-25T19:28:28.160Z,15.83
2022-12-25T19:30:58.700Z,15.82
2022-12-25T19:33:26.080Z,15.76
2022-12-25T19:35:53.386Z,15.72
2022-12-25T19:38:20.585Z,15.64
2022-12-25T19:40:47.841Z,15.69
2022-12-25T19:43:16.465Z,15.75
2022-12-25T19:45:43.741Z,15.76
2022-12-25T19:48:11.301Z,15.79
2022-12-25T19:50:39.240Z,15.84
2022-12-25T19:53:06.388Z,15.75
2022-12-25T19:55:33.761Z,15.64
2022-12-25T19:58:01.312Z,15.55
2022-12-25T20:00:29.964Z,15.50
2022-12-25T20:02:57.412Z,15.57
2022-12-25T20:05:25.047Z,15.60
2022-12-25T20:07:52.219Z,15.57
2022-12-25T20:10:19.468Z,15.44
2022-12-25T20:12:46.942Z,15.37
2022-12-25T20:15:14.163Z,15.41
2022-12-25T20:17:42.961Z,15.60
2022-12-25T20:20:11.420Z,15.68
2022-12-25T20:22:38.659Z,15.81
2022-12-25T20:25:07.283Z,15.87
2022-12-25T20:27:34.726Z,15.98
2022-12-25T20:30:01.883Z,16.06
2022-12-25T20:32:29.760Z,16.04
2022-12-25T20:34:58.381Z,16.06
2022-12-25T20:37:25.559Z,15.89
2022-12-25T20:39:53.343Z,15.95
2022-12-25T20:42:21.561Z,15.88
2022-12-25T20:44:48.990Z,15.87
2022-12-25T20:47:16.419Z,15.77
2022-12-25T20:49:43.618Z,15.75
2022-12-25T20:52:12.220Z,15.78
2022-12-25T20:54:39.514Z,15.80
2022-12-25T20:57:07.380Z,15.73
2022-12-25T20:59:37.784Z,15.78
2022-12-25T21:02:06.273Z,15.78
2022-12-25T21:04:35.575Z,15.83
2022-12-25T21:07:02.799Z,15.72
2022-12-25T21:09:31.890Z,15.69
2022-12-25T21:11:59.241Z,15.77
2022-12-25T21:14:26.460Z,15.82
2022-12-25T21:16:53.681Z,15.81
2022-12-25T21:19:21.039Z,15.91
2022-12-25T21:21:49.779Z,15.91
2022-12-25T21:24:17.300Z,15.81
2022-12-25T21:26:48.194Z,15.97
2022-12-25T21:29:17.439Z,16.10
2022-12-25T21:31:44.759Z,16.14
2022-12-25T21:34:11.942Z,16.11
2022-12-25T21:36:39.121Z,16.02
2022-12-25T21:39:08.718Z,15.96
2022-12-25T21:41:38.807Z,15.86
2022-12-25T21:44:08.548Z,15.92
2022-12-25T21:46:35.841Z,15.94
2022-12-25T21:49:03.079Z,15.87
2022-12-25T21:51:32.384Z,15.87
2022-12-25T21:54:00.100Z,15.91
2022-12-25T21:56:29.379Z,15.81
2022-12-25T21:58:59.079Z,15.78
2022-12-25T22:01:28.383Z,15.85
2022-12-25T22:03:56.525Z,15.75
2022-12-25T22:06:24.105Z,15.76
2022-12-25T22:08:51.293Z,15.74
2022-12-25T22:11:18.499Z,15.78
2022-12-25T22:13:45.638Z,15.81
2022-12-25T22:16:12.899Z,15.70
2022-12-25T22:18:41.477Z,15.72
2022-12-25T22:21:08.723Z,15.68
2022-12-25T22:23:35.839Z,15.72
2022-12-25T22:26:05.119Z,15.78
2022-12-25T22:28:32.285Z,15.79
2022-12-25T22:31:02.913Z,15.72
2022-12-25T22:33:30.079Z,15.60
2022-12-25T22:36:03.599Z,15.51
2022-12-25T22:38:31.862Z,15.65
2022-12-25T22:41:04.241Z,15.61
2022-12-25T22:43:58.070Z,15.52
2022-12-25T22:46:18.534Z,15.47
2022-12-25T22:48:45.823Z,15.44
2022-12-25T22:51:14.358Z,15.46
2022-12-25T22:53:41.560Z,15.51
2022-12-25T22:56:09.879Z,15.59
2022-12-25T22:58:37.060Z,15.59
2022-12-25T23:01:08.081Z,15.57
2022-12-25T23:03:35.401Z,15.55
2022-12-25T23:06:02.860Z,15.51
2022-12-25T23:08:31.621Z,15.45
2022-12-25T23:11:01.717Z,15.41
2022-12-25T23:13:28.961Z,15.43
2022-12-25T23:15:56.314Z,15.44
2022-12-25T23:18:23.567Z,15.41
2022-12-25T23:20:50.737Z,15.32
2022-12-25T23:23:18.355Z,15.31
2022-12-25T23:25:47.199Z,15.25
2022-12-25T23:28:14.402Z,15.26
2022-12-25T23:30:41.557Z,15.29
2022-12-25T23:33:08.715Z,15.21
2022-12-25T23:35:35.899Z,15.07
2022-12-25T23:38:03.200Z,15.06
2022-12-25T23:40:30.359Z,15.08
2022-12-25T23:42:59.058Z,15.14
2022-12-25T23:45:26.267Z,15.36
2022-12-25T23:47:53.657Z,15.30
2022-12-25T23:50:20.827Z,15.21
2022-12-25T23:52:47.987Z,15.15
2022-12-25T23:55:15.301Z,15.23
2022-12-25T23:57:42.527Z,15.24
